Time;durP1;ratioP1;P1;durP2;ratioP2;P2;SDS_P1;SDS_P2;PMS_P1;PMS_P2;Temp;Humidity;BMP_temperature;BMP_pressure;BME280_temperature;BME280_humidity;BME280_pressure;Samples;Min_cycle;Max_cycle;Signal;HPM_P1;HPM_P2
2021/12/11 00:01:22;;;;;;;10.63;6.25;;;;;;;;;;5046742;28;20237;-79
2021/12/11 00:03:52;;;;;;;11.23;7.65;;;;;;;;;;5047273;28;20199;-79
2021/12/11 00:06:21;;;;;;;8.57;7.03;;;;;;;;;;5049266;28;20199;-80
2021/12/11 00:08:50;;;;;;;7.97;6.30;;;;;;;;;;5051381;28;20199;-79
2021/12/11 00:11:20;;;;;;;8.57;7.57;;;;;;;;;;5046972;28;20571;-79
2021/12/11 00:13:49;;;;;;;8.55;6.45;;;;;;;;;;5059899;28;20589;-80
2021/12/11 00:16:18;;;;;;;8.23;7.25;;;;;;;;;;5067676;28;20198;-78
2021/12/11 00:18:45;;;;;;;7.55;6.40;;;;;;;;;;5051029;28;20191;-79
2021/12/11 00:21:14;;;;;;;9.15;7.15;;;;;;;;;;5051660;28;20686;-79
2021/12/11 00:23:42;;;;;;;10.07;6.90;;;;;;;;;;5051518;28;20199;-79
2021/12/11 00:26:11;;;;;;;11.18;6.07;;;;;;;;;;5045285;28;20217;-80
2021/12/11 00:28:44;;;;;;;10.27;6.70;;;;;;;;;;5051707;28;20195;-79
2021/12/11 00:31:13;;;;;;;10.90;6.88;;;;;;;;;;5056551;28;20665;-79
2021/12/11 00:33:40;;;;;;;8.15;6.05;;;;;;;;;;5058414;28;20205;-79
2021/12/11 00:36:09;;;;;;;9.48;7.93;;;;;;;;;;5051464;28;20531;-80
2021/12/11 00:38:36;;;;;;;9.68;7.28;;;;;;;;;;5050584;28;20682;-80
2021/12/11 00:41:05;;;;;;;7.65;6.15;;;;;;;;;;5060895;28;20210;-80
2021/12/11 00:43:34;;;;;;;10.23;7.05;;;;;;;;;;5054443;28;20203;-80
2021/12/11 00:46:02;;;;;;;18.83;6.63;;;;;;;;;;5058749;28;20202;-80
2021/12/11 00:48:31;;;;;;;10.32;6.13;;;;;;;;;;5049457;28;20210;-80
2021/12/11 00:50:59;;;;;;;10.52;5.63;;;;;;;;;;5050585;28;20190;-80
2021/12/11 00:53:28;;;;;;;9.80;5.95;;;;;;;;;;5051430;28;20666;-79
2021/12/11 00:55:56;;;;;;;8.07;6.30;;;;;;;;;;5049326;28;20195;-78
2021/12/11 00:58:25;;;;;;;8.85;6.70;;;;;;;;;;5051265;28;20198;-78
2021/12/11 01:00:55;;;;;;;9.40;7.05;;;;;;;;;;5052789;28;20222;-78
2021/12/11 01:03:24;;;;;;;7.72;5.53;;;;;;;;;;5059584;28;20210;-78
2021/12/11 01:05:54;;;;;;;10.98;6.85;;;;;;;;;;5050654;28;20199;-78
2021/12/11 01:08:24;;;;;;;11.70;7.18;;;;;;;;;;5048430;28;20241;-78
2021/12/11 01:10:52;;;;;;;11.88;7.30;;;;;;;;;;5043191;28;20198;-78
2021/12/11 01:13:24;;;;;;;8.45;6.25;;;;;;;;;;5052372;28;20206;-77
2021/12/11 01:15:55;;;;;;;7.97;5.88;;;;;;;;;;5055460;28;20198;-78
2021/12/11 01:18:34;;;;;;;8.57;7.57;;;;;;;;;;5055178;28;20292;-77
2021/12/11 01:21:08;;;;;;;17.20;6.20;;;;;;;;;;5052535;28;20697;-77
2021/12/11 01:23:56;;;;;;;9.48;5.78;;;;;;;;;;5054183;28;21046;-76
2021/12/11 01:26:23;;;;;;;11.15;6.50;;;;;;;;;;5043382;28;20218;-77
2021/12/11 01:28:51;;;;;;;7.07;6.38;;;;;;;;;;5055329;28;20237;-77
2021/12/11 01:31:19;;;;;;;5.82;5.22;;;;;;;;;;5050635;28;20221;-77
2021/12/11 01:33:46;;;;;;;10.73;6.10;;;;;;;;;;5056126;28;20205;-79
2021/12/11 01:36:15;;;;;;;7.55;4.78;;;;;;;;;;5052325;28;20195;-78
2021/12/11 01:38:42;;;;;;;7.90;6.68;;;;;;;;;;5055853;28;20221;-79
2021/12/11 01:41:12;;;;;;;7.28;5.60;;;;;;;;;;5055018;28;20997;-78
2021/12/11 01:43:41;;;;;;;6.47;5.45;;;;;;;;;;5061036;28;20293;-77
2021/12/11 01:46:09;;;;;;;8.63;6.80;;;;;;;;;;5047829;28;20191;-76
2021/12/11 01:48:38;;;;;;;5.43;4.93;;;;;;;;;;5059927;28;20642;-77
2021/12/11 01:51:06;;;;;;;6.78;4.95;;;;;;;;;;5047900;28;20661;-77
2021/12/11 01:53:38;;;;;;;6.72;4.82;;;;;;;;;;5062010;28;20582;-77
2021/12/11 01:56:08;;;;;;;9.07;5.82;;;;;;;;;;5050263;28;20198;-78
2021/12/11 01:58:37;;;;;;;6.38;5.18;;;;;;;;;;5050794;28;20570;-77
2021/12/11 02:01:07;;;;;;;9.23;6.30;;;;;;;;;;5054298;28;20229;-77
2021/12/11 02:03:34;;;;;;;8.98;6.50;;;;;;;;;;5056073;28;20206;-77
2021/12/11 02:06:01;;;;;;;9.93;5.75;;;;;;;;;;5050783;28;20582;-78
2021/12/11 02:08:31;;;;;;;6.68;4.82;;;;;;;;;;5045067;28;20650;-78
2021/12/11 02:11:02;;;;;;;7.13;5.50;;;;;;;;;;5048127;28;20210;-78
2021/12/11 02:13:38;;;;;;;6.57;5.07;;;;;;;;;;5053530;28;20673;-77
2021/12/11 02:16:05;;;;;;;5.88;5.38;;;;;;;;;;5053426;28;20581;-78
2021/12/11 02:18:36;;;;;;;11.15;6.07;;;;;;;;;;5055954;28;20676;-77
2021/12/11 02:21:06;;;;;;;10.27;5.78;;;;;;;;;;5058437;28;20755;-78
2021/12/11 02:23:35;;;;;;;5.95;4.85;;;;;;;;;;5054746;28;20681;-79
2021/12/11 02:26:03;;;;;;;8.40;6.05;;;;;;;;;;5051928;28;20323;-78
2021/12/11 02:28:34;;;;;;;6.00;5.35;;;;;;;;;;5062736;28;20206;-77
2021/12/11 02:31:11;;;;;;;6.78;5.03;;;;;;;;;;5061613;28;20213;-77
2021/12/11 02:33:41;;;;;;;6.20;4.93;;;;;;;;;;5053597;28;20202;-78
2021/12/11 02:36:11;;;;;;;6.95;5.45;;;;;;;;;;5056597;28;20199;-77
2021/12/11 02:38:44;;;;;;;7.25;4.90;;;;;;;;;;5056080;28;20309;-76
2021/12/11 02:41:13;;;;;;;7.60;4.88;;;;;;;;;;5054865;28;20226;-76
2021/12/11 02:43:43;;;;;;;7.50;5.50;;;;;;;;;;5060699;28;20569;-78
2021/12/11 02:46:12;;;;;;;7.47;4.40;;;;;;;;;;5054067;28;20194;-77
2021/12/11 02:48:43;;;;;;;7.13;5.35;;;;;;;;;;5064829;28;20565;-77
2021/12/11 02:51:13;;;;;;;13.98;5.32;;;;;;;;;;5059108;28;20290;-77
2021/12/11 02:53:43;;;;;;;5.13;4.55;;;;;;;;;;5057896;28;20574;-77
2021/12/11 02:56:12;;;;;;;5.35;4.68;;;;;;;;;;5066602;28;20194;-77
2021/12/11 02:58:40;;;;;;;7.18;4.45;;;;;;;;;;5063964;28;20203;-78
2021/12/11 03:01:10;;;;;;;6.82;4.78;;;;;;;;;;5053170;28;20592;-77
2021/12/11 03:03:41;;;;;;;5.68;5.07;;;;;;;;;;5061264;28;20202;-75
2021/12/11 03:06:16;;;;;;;5.03;4.28;;;;;;;;;;5057122;28;20286;-75
2021/12/11 03:08:44;;;;;;;4.93;4.45;;;;;;;;;;5047749;28;20658;-76
2021/12/11 03:11:13;;;;;;;8.32;5.25;;;;;;;;;;5064455;28;20677;-75
2021/12/11 03:13:44;;;;;;;6.75;4.32;;;;;;;;;;5052817;28;20199;-75
2021/12/11 03:16:11;;;;;;;7.88;5.20;;;;;;;;;;5051922;28;20194;-75
2021/12/11 03:18:38;;;;;;;5.50;4.68;;;;;;;;;;5046868;28;20198;-75
2021/12/11 03:21:05;;;;;;;6.60;5.15;;;;;;;;;;5052510;28;20226;-76
2021/12/11 03:23:33;;;;;;;8.52;4.90;;;;;;;;;;5053033;28;20566;-75
2021/12/11 03:26:01;;;;;;;7.47;4.65;;;;;;;;;;5052807;28;20672;-75
2021/12/11 03:28:28;;;;;;;7.22;5.15;;;;;;;;;;5051214;28;20218;-75
2021/12/11 03:30:59;;;;;;;6.63;4.35;;;;;;;;;;5052454;28;20195;-76
2021/12/11 03:33:27;;;;;;;7.05;5.30;;;;;;;;;;5048017;28;20800;-76
2021/12/11 03:35:55;;;;;;;8.00;5.22;;;;;;;;;;5063664;28;20206;-76
2021/12/11 03:38:23;;;;;;;6.25;5.72;;;;;;;;;;5057764;28;20198;-76
2021/12/11 03:40:51;;;;;;;5.70;5.05;;;;;;;;;;5050454;28;20569;-77
2021/12/11 03:43:22;;;;;;;4.95;4.45;;;;;;;;;;5050090;28;20202;-77
2021/12/11 03:45:51;;;;;;;7.90;5.63;;;;;;;;;;5065230;28;20198;-77
2021/12/11 03:48:19;;;;;;;5.70;5.10;;;;;;;;;;5053916;28;20202;-76
2021/12/11 03:50:47;;;;;;;9.30;4.47;;;;;;;;;;5057446;28;20520;-79
2021/12/11 03:53:14;;;;;;;9.65;6.10;;;;;;;;;;5050844;28;20199;-77
2021/12/11 03:55:42;;;;;;;5.05;4.63;;;;;;;;;;5049506;28;20206;-77
2021/12/11 03:58:09;;;;;;;7.88;5.63;;;;;;;;;;5054139;28;20206;-77
2021/12/11 04:00:40;;;;;;;8.65;6.28;;;;;;;;;;5060181;28;20222;-78
2021/12/11 04:03:07;;;;;;;9.43;6.28;;;;;;;;;;5055227;28;20613;-77
2021/12/11 04:05:35;;;;;;;5.95;5.30;;;;;;;;;;5064761;28;20198;-77
2021/12/11 04:08:04;;;;;;;11.50;6.38;;;;;;;;;;5049106;28;20206;-77
2021/12/11 04:10:31;;;;;;;8.13;6.03;;;;;;;;;;5041257;28;20466;-77
2021/12/11 04:12:59;;;;;;;10.25;6.35;;;;;;;;;;5056343;28;20210;-76
2021/12/11 04:15:27;;;;;;;7.35;6.43;;;;;;;;;;5058803;28;20194;-76
2021/12/11 04:17:55;;;;;;;6.05;5.45;;;;;;;;;;5061172;28;20194;-76
2021/12/11 04:20:24;;;;;;;7.78;6.05;;;;;;;;;;5053021;28;20207;-76
2021/12/11 04:22:51;;;;;;;9.90;6.32;;;;;;;;;;5055976;28;20214;-76
2021/12/11 04:25:20;;;;;;;12.40;7.30;;;;;;;;;;5061270;28;20222;-76
2021/12/11 04:27:47;;;;;;;12.65;6.95;;;;;;;;;;5054806;28;20202;-76
2021/12/11 04:30:16;;;;;;;12.23;8.13;;;;;;;;;;5049893;28;20206;-75
2021/12/11 04:32:44;;;;;;;9.25;6.43;;;;;;;;;;5058718;28;20191;-76
2021/12/11 04:35:13;;;;;;;8.43;6.53;;;;;;;;;;5051838;28;20195;-76
2021/12/11 04:37:40;;;;;;;8.45;6.07;;;;;;;;;;5052089;28;20202;-76
2021/12/11 04:40:10;;;;;;;7.10;6.22;;;;;;;;;;5049846;28;20195;-76
2021/12/11 04:42:48;;;;;;;15.52;8.45;;;;;;;;;;5058752;28;20229;-77
2021/12/11 04:45:18;;;;;;;14.43;6.43;;;;;;;;;;5055272;28;20230;-77
2021/12/11 04:47:51;;;;;;;10.52;7.10;;;;;;;;;;5042179;28;20666;-76
2021/12/11 04:50:27;;;;;;;9.13;8.13;;;;;;;;;;5057130;28;20680;-76
2021/12/11 04:52:55;;;;;;;11.68;6.88;;;;;;;;;;5052527;28;20190;-76
2021/12/11 04:55:35;;;;;;;8.98;7.30;;;;;;;;;;5047494;28;20365;-77
2021/12/11 05:00:59;;;;;;;9.00;7.00;;;;;;;;;;5037933;28;20227;-75
2021/12/11 05:06:36;;;;;;;8.63;6.85;;;;;;;;;;4994851;28;20259;-76
2021/12/11 05:11:53;;;;;;;8.90;7.60;;;;;;;;;;5039847;28;20217;-76
2021/12/11 05:14:23;;;;;;;11.13;7.68;;;;;;;;;;5052620;28;20198;-77
2021/12/11 05:16:50;;;;;;;10.65;7.38;;;;;;;;;;5051290;28;20280;-76
2021/12/11 05:19:18;;;;;;;9.25;8.13;;;;;;;;;;5052838;28;20203;-75
2021/12/11 05:21:47;;;;;;;12.82;8.07;;;;;;;;;;5058134;28;20273;-76
2021/12/11 05:24:16;;;;;;;12.55;7.82;;;;;;;;;;5041842;28;20198;-76
2021/12/11 05:26:43;;;;;;;20.17;9.05;;;;;;;;;;5042801;28;20190;-76
2021/12/11 05:29:10;;;;;;;9.55;7.90;;;;;;;;;;5045682;28;20205;-77
2021/12/11 05:31:38;;;;;;;13.48;8.10;;;;;;;;;;5054512;28;20649;-77
2021/12/11 05:34:05;;;;;;;15.07;9.40;;;;;;;;;;5059530;28;20190;-76
2021/12/11 05:36:33;;;;;;;8.07;6.57;;;;;;;;;;5064267;28;20582;-78
2021/12/11 05:39:02;;;;;;;11.32;7.85;;;;;;;;;;5049402;28;20206;-77
2021/12/11 05:41:29;;;;;;;10.20;7.10;;;;;;;;;;5049828;28;20195;-79
2021/12/11 05:43:56;;;;;;;10.50;7.72;;;;;;;;;;5060603;28;20221;-78
2021/12/11 05:46:24;;;;;;;8.98;6.93;;;;;;;;;;5048372;28;20199;-78
2021/12/11 05:48:52;;;;;;;11.50;8.00;;;;;;;;;;5040115;28;20206;-78
2021/12/11 05:51:21;;;;;;;12.02;8.57;;;;;;;;;;5057551;28;20199;-79
2021/12/11 05:53:49;;;;;;;10.85;8.48;;;;;;;;;;5051585;28;20713;-79
2021/12/11 05:56:18;;;;;;;11.63;8.20;;;;;;;;;;5051004;28;20202;-78
2021/12/11 05:58:56;;;;;;;11.55;8.43;;;;;;;;;;5061090;28;20247;-79
2021/12/11 06:01:24;;;;;;;12.88;9.25;;;;;;;;;;5049020;28;20194;-79
2021/12/11 06:03:52;;;;;;;13.50;8.20;;;;;;;;;;5066717;28;20186;-77
2021/12/11 06:06:19;;;;;;;14.40;7.47;;;;;;;;;;5050971;28;21152;-78
2021/12/11 06:08:47;;;;;;;10.27;7.43;;;;;;;;;;5052844;28;20201;-76
2021/12/11 06:11:15;;;;;;;12.00;7.28;;;;;;;;;;5053918;28;20608;-78
2021/12/11 06:13:43;;;;;;;10.15;8.38;;;;;;;;;;5053112;28;20195;-78
2021/12/11 06:16:11;;;;;;;12.13;9.20;;;;;;;;;;5058269;28;20201;-77
2021/12/11 06:18:39;;;;;;;12.70;8.85;;;;;;;;;;5057676;28;20209;-78
2021/12/11 06:21:06;;;;;;;11.60;8.32;;;;;;;;;;5047959;28;20191;-77
2021/12/11 06:23:33;;;;;;;11.57;8.50;;;;;;;;;;5053806;28;20222;-76
2021/12/11 06:26:03;;;;;;;11.68;8.00;;;;;;;;;;5059962;28;20195;-76
2021/12/11 06:28:30;;;;;;;10.63;7.70;;;;;;;;;;5054561;28;20218;-76
2021/12/11 06:30:59;;;;;;;11.75;7.50;;;;;;;;;;5061735;28;20209;-76
2021/12/11 06:33:28;;;;;;;11.98;7.55;;;;;;;;;;5073963;28;20218;-76
2021/12/11 06:35:56;;;;;;;10.90;7.53;;;;;;;;;;5077327;28;20199;-75
2021/12/11 06:38:25;;;;;;;9.88;8.07;;;;;;;;;;5075255;28;20202;-76
2021/12/11 06:40:52;;;;;;;11.02;8.57;;;;;;;;;;5058972;28;20658;-76
2021/12/11 06:43:20;;;;;;;10.68;7.82;;;;;;;;;;5067298;28;20222;-76
2021/12/11 06:45:47;;;;;;;8.40;7.13;;;;;;;;;;5071398;28;20210;-76
2021/12/11 06:48:16;;;;;;;8.23;7.07;;;;;;;;;;5066187;28;20199;-76
2021/12/11 06:50:43;;;;;;;11.98;7.50;;;;;;;;;;5060725;28;20616;-76
2021/12/11 06:53:14;;;;;;;12.50;7.97;;;;;;;;;;5069480;28;20190;-76
2021/12/11 06:55:42;;;;;;;13.38;7.90;;;;;;;;;;5060242;28;20229;-76
2021/12/11 06:58:09;;;;;;;11.88;6.95;;;;;;;;;;5063964;28;20202;-76
2021/12/11 07:00:36;;;;;;;10.10;7.95;;;;;;;;;;5056975;28;20221;-76
2021/12/11 07:03:03;;;;;;;11.07;7.57;;;;;;;;;;5062342;28;20213;-76
2021/12/11 07:05:37;;;;;;;10.75;8.02;;;;;;;;;;5061892;28;20205;-76
2021/12/11 07:08:05;;;;;;;9.45;6.90;;;;;;;;;;5051067;28;20939;-76
2021/12/11 07:10:32;;;;;;;11.55;8.05;;;;;;;;;;5050247;28;20209;-76
2021/12/11 07:13:00;;;;;;;11.30;8.65;;;;;;;;;;5052195;28;20206;-76
2021/12/11 07:15:27;;;;;;;12.75;7.97;;;;;;;;;;5051647;28;20203;-76
2021/12/11 07:17:55;;;;;;;11.50;8.15;;;;;;;;;;5050226;28;20199;-77
2021/12/11 07:23:27;;;;;;;15.52;9.32;;;;;;;;;;5045883;28;20212;-76
2021/12/11 07:25:57;;;;;;;14.25;8.57;;;;;;;;;;5051299;28;20953;-76
2021/12/11 07:28:25;;;;;;;17.58;8.98;;;;;;;;;;5055753;28;20203;-76
2021/12/11 07:30:54;;;;;;;14.80;9.70;;;;;;;;;;5056603;28;20194;-76
2021/12/11 07:33:21;;;;;;;17.88;10.05;;;;;;;;;;5053855;28;20199;-76
2021/12/11 07:35:49;;;;;;;20.17;10.25;;;;;;;;;;5058204;28;20221;-76
2021/12/11 07:38:17;;;;;;;22.48;10.90;;;;;;;;;;5058136;28;20570;-76
2021/12/11 07:40:48;;;;;;;17.17;13.32;;;;;;;;;;5044748;28;20198;-76
2021/12/11 07:43:15;;;;;;;23.17;11.32;;;;;;;;;;5060172;28;20226;-76
2021/12/11 07:45:43;;;;;;;19.15;10.07;;;;;;;;;;5042840;28;20741;-75
2021/12/11 07:48:11;;;;;;;21.55;11.57;;;;;;;;;;5051038;28;20198;-76
2021/12/11 07:50:38;;;;;;;23.52;12.55;;;;;;;;;;5052810;28;20202;-76
2021/12/11 07:53:06;;;;;;;16.48;10.73;;;;;;;;;;5054609;28;20563;-76
2021/12/11 07:55:33;;;;;;;19.60;11.07;;;;;;;;;;5051758;28;20207;-76
2021/12/11 07:58:02;;;;;;;18.60;11.80;;;;;;;;;;5050266;28;20257;-77
2021/12/11 08:00:30;;;;;;;23.58;12.15;;;;;;;;;;5053855;28;20313;-77
2021/12/11 08:02:57;;;;;;;21.15;12.10;;;;;;;;;;5056777;28;20711;-78
2021/12/11 08:05:25;;;;;;;22.88;12.70;;;;;;;;;;5054838;28;20830;-75
2021/12/11 08:07:52;;;;;;;21.48;12.10;;;;;;;;;;5044709;28;20217;-78
2021/12/11 08:10:22;;;;;;;25.15;12.90;;;;;;;;;;5047760;28;20207;-77
2021/12/11 08:12:50;;;;;;;20.63;12.82;;;;;;;;;;5047480;28;20199;-76
2021/12/11 08:15:19;;;;;;;24.55;13.43;;;;;;;;;;5050331;28;20217;-76
2021/12/11 08:17:51;;;;;;;28.05;12.23;;;;;;;;;;5042905;28;20191;-77
2021/12/11 08:20:19;;;;;;;19.52;11.93;;;;;;;;;;5039605;28;20209;-76
2021/12/11 08:22:46;;;;;;;25.73;14.00;;;;;;;;;;5053250;28;20214;-76
2021/12/11 08:25:13;;;;;;;27.95;14.73;;;;;;;;;;5057930;28;20206;-77
2021/12/11 08:27:41;;;;;;;24.77;13.00;;;;;;;;;;5041382;28;20686;-77
2021/12/11 08:30:09;;;;;;;28.55;13.88;;;;;;;;;;5031901;28;20655;-76
2021/12/11 08:32:38;;;;;;;24.55;14.80;;;;;;;;;;5049042;28;20203;-76
2021/12/11 08:35:09;;;;;;;29.75;15.02;;;;;;;;;;5056355;28;20233;-77
2021/12/11 08:37:36;;;;;;;33.30;14.00;;;;;;;;;;5055125;28;20227;-76
2021/12/11 08:40:03;;;;;;;25.63;13.02;;;;;;;;;;5051048;28;20210;-77
2021/12/11 08:42:31;;;;;;;31.23;16.73;;;;;;;;;;5051422;28;20377;-77
2021/12/11 08:45:05;;;;;;;23.55;14.95;;;;;;;;;;5051782;28;20203;-76
2021/12/11 08:47:36;;;;;;;28.42;15.13;;;;;;;;;;5057387;28;20201;-77
2021/12/11 08:50:05;;;;;;;37.13;17.10;;;;;;;;;;5047855;28;20214;-77
2021/12/11 08:52:36;;;;;;;28.08;13.85;;;;;;;;;;5050516;28;20198;-77
2021/12/11 08:55:06;;;;;;;26.48;14.98;;;;;;;;;;5044629;28;20195;-77
2021/12/11 08:57:36;;;;;;;30.95;15.48;;;;;;;;;;5056958;28;20202;-77
2021/12/11 09:00:08;;;;;;;32.42;16.77;;;;;;;;;;5048494;28;20242;-77
2021/12/11 09:02:37;;;;;;;27.85;15.60;;;;;;;;;;5055903;28;20195;-77
2021/12/11 09:05:09;;;;;;;30.30;15.10;;;;;;;;;;5051444;28;20195;-77
2021/12/11 09:07:37;;;;;;;30.42;16.13;;;;;;;;;;5051294;28;20195;-77
2021/12/11 09:10:07;;;;;;;26.75;14.82;;;;;;;;;;5050919;28;20195;-77
2021/12/11 09:12:36;;;;;;;29.65;17.17;;;;;;;;;;5039123;28;20215;-77
2021/12/11 09:15:07;;;;;;;30.33;16.17;;;;;;;;;;5051072;28;20203;-77
2021/12/11 09:17:37;;;;;;;34.13;17.10;;;;;;;;;;5050112;28;20609;-77
2021/12/11 09:20:09;;;;;;;35.85;16.77;;;;;;;;;;5053753;28;20195;-77
2021/12/11 09:22:39;;;;;;;28.80;15.02;;;;;;;;;;5052837;28;20721;-77
2021/12/11 09:25:10;;;;;;;31.98;15.88;;;;;;;;;;5043545;28;20195;-77
2021/12/11 09:27:43;;;;;;;31.20;14.45;;;;;;;;;;5057118;28;20202;-78
2021/12/11 09:30:13;;;;;;;33.50;16.50;;;;;;;;;;5049723;28;20657;-77
2021/12/11 09:32:42;;;;;;;33.92;16.23;;;;;;;;;;5054680;28;20210;-77
2021/12/11 09:35:13;;;;;;;34.92;16.20;;;;;;;;;;5050862;28;20550;-77
2021/12/11 09:37:42;;;;;;;36.88;18.52;;;;;;;;;;5057325;28;20198;-77
2021/12/11 09:40:11;;;;;;;33.20;16.83;;;;;;;;;;5048709;28;20202;-77
2021/12/11 09:42:38;;;;;;;37.17;15.68;;;;;;;;;;5054237;28;20679;-77
2021/12/11 09:45:08;;;;;;;37.15;15.20;;;;;;;;;;5051145;28;20187;-78
2021/12/11 09:47:40;;;;;;;35.33;16.90;;;;;;;;;;5043517;28;20552;-77
2021/12/11 09:50:11;;;;;;;37.38;16.95;;;;;;;;;;5070494;28;20202;-77
2021/12/11 09:52:41;;;;;;;34.65;15.57;;;;;;;;;;5056859;28;20551;-77
2021/12/11 09:55:13;;;;;;;44.90;18.40;;;;;;;;;;5053484;28;20665;-78
2021/12/11 09:57:42;;;;;;;39.30;17.98;;;;;;;;;;5063506;28;20554;-77
2021/12/11 10:00:13;;;;;;;30.40;17.48;;;;;;;;;;5053300;28;20562;-77
2021/12/11 10:02:41;;;;;;;40.13;19.35;;;;;;;;;;5050751;28;20198;-77
2021/12/11 10:05:19;;;;;;;36.92;17.35;;;;;;;;;;5054459;28;20652;-77
2021/12/11 10:08:01;;;;;;;33.45;16.83;;;;;;;;;;5040907;28;20202;-77
2021/12/11 10:10:28;;;;;;;36.83;17.35;;;;;;;;;;5053060;28;20205;-78
2021/12/11 10:12:57;;;;;;;33.45;17.77;;;;;;;;;;5051530;28;20632;-78
2021/12/11 10:15:27;;;;;;;37.75;19.63;;;;;;;;;;5058610;28;20209;-78
2021/12/11 10:17:57;;;;;;;39.60;18.27;;;;;;;;;;5050109;28;20190;-78
2021/12/11 10:20:28;;;;;;;35.45;15.60;;;;;;;;;;5058114;28;20195;-78
2021/12/11 10:22:57;;;;;;;33.90;18.70;;;;;;;;;;5055780;28;20199;-78
2021/12/11 10:25:30;;;;;;;34.80;17.92;;;;;;;;;;5045893;28;20199;-78
2021/12/11 10:27:58;;;;;;;31.10;16.33;;;;;;;;;;5062420;28;20668;-77
2021/12/11 10:30:28;;;;;;;34.28;18.70;;;;;;;;;;5065621;28;20202;-78
2021/12/11 10:32:56;;;;;;;41.15;18.50;;;;;;;;;;5049105;28;20202;-78
2021/12/11 10:35:25;;;;;;;27.25;15.82;;;;;;;;;;5047827;28;20199;-78
2021/12/11 10:37:52;;;;;;;33.63;16.63;;;;;;;;;;5054361;28;20217;-77
2021/12/11 10:40:22;;;;;;;31.23;16.85;;;;;;;;;;5059170;28;20198;-78
2021/12/11 10:42:52;;;;;;;32.15;17.30;;;;;;;;;;5064124;28;20190;-77
2021/12/11 10:45:21;;;;;;;31.35;16.90;;;;;;;;;;5050858;28;20199;-77
2021/12/11 10:47:51;;;;;;;28.10;14.40;;;;;;;;;;5054807;28;20199;-77
2021/12/11 10:50:34;;;;;;;30.90;16.75;;;;;;;;;;5052423;28;20210;-77
2021/12/11 10:53:02;;;;;;;31.08;15.73;;;;;;;;;;5054577;28;20195;-78
2021/12/11 10:55:31;;;;;;;29.33;14.98;;;;;;;;;;5053679;28;20194;-77
2021/12/11 10:57:59;;;;;;;36.97;16.23;;;;;;;;;;5060880;28;20199;-78
2021/12/11 11:00:28;;;;;;;37.88;18.95;;;;;;;;;;5056968;28;20225;-78
2021/12/11 11:02:58;;;;;;;30.88;17.17;;;;;;;;;;5048747;28;20547;-78
2021/12/11 11:05:27;;;;;;;36.58;18.65;;;;;;;;;;5056634;28;20210;-77
2021/12/11 11:07:54;;;;;;;36.80;20.85;;;;;;;;;;5047443;28;20202;-78
2021/12/11 11:10:22;;;;;;;35.80;19.33;;;;;;;;;;5068363;28;20190;-78
2021/12/11 11:12:53;;;;;;;27.90;15.75;;;;;;;;;;5039826;28;20218;-78
2021/12/11 11:15:22;;;;;;;27.63;15.93;;;;;;;;;;5050779;28;20528;-78
2021/12/11 11:17:50;;;;;;;30.02;16.60;;;;;;;;;;5054958;28;20203;-78
2021/12/11 11:20:21;;;;;;;27.35;15.90;;;;;;;;;;5059471;28;20202;-78
2021/12/11 11:22:48;;;;;;;26.38;15.63;;;;;;;;;;5047673;28;20205;-78
2021/12/11 11:25:17;;;;;;;32.35;17.88;;;;;;;;;;5054768;28;20214;-78
2021/12/11 11:27:45;;;;;;;33.92;17.27;;;;;;;;;;5052174;28;20222;-78
2021/12/11 11:30:15;;;;;;;36.88;17.90;;;;;;;;;;5057410;28;20210;-78
2021/12/11 11:32:42;;;;;;;27.65;15.70;;;;;;;;;;5058252;28;20194;-78
2021/12/11 11:35:11;;;;;;;27.50;16.17;;;;;;;;;;5048124;28;20195;-78
2021/12/11 11:37:40;;;;;;;30.83;17.65;;;;;;;;;;5049879;28;20201;-78
2021/12/11 11:40:09;;;;;;;31.48;16.60;;;;;;;;;;5050316;28;20635;-78
2021/12/11 11:42:37;;;;;;;34.63;19.90;;;;;;;;;;5054932;28;20199;-78
2021/12/11 11:45:05;;;;;;;26.45;16.88;;;;;;;;;;5056716;28;20223;-78
2021/12/11 11:47:33;;;;;;;31.38;18.55;;;;;;;;;;5040450;28;20191;-78
2021/12/11 11:50:02;;;;;;;28.63;15.52;;;;;;;;;;5049846;28;20205;-78
2021/12/11 11:52:30;;;;;;;38.78;18.10;;;;;;;;;;5046518;28;20298;-78
2021/12/11 11:55:00;;;;;;;33.53;16.25;;;;;;;;;;5043049;28;20554;-78
2021/12/11 11:57:28;;;;;;;32.05;16.40;;;;;;;;;;5051515;28;20203;-78
2021/12/11 11:59:57;;;;;;;32.13;17.80;;;;;;;;;;5050874;28;20214;-78
2021/12/11 12:02:26;;;;;;;34.90;16.67;;;;;;;;;;5051254;28;20201;-79
2021/12/11 12:04:55;;;;;;;26.92;15.43;;;;;;;;;;5051894;28;20250;-78
2021/12/11 12:07:26;;;;;;;27.50;14.43;;;;;;;;;;5043979;28;20199;-78
2021/12/11 12:09:58;;;;;;;32.42;17.55;;;;;;;;;;5044740;28;20230;-79
2021/12/11 12:12:27;;;;;;;27.95;15.35;;;;;;;;;;5058890;28;20207;-78
2021/12/11 12:14:55;;;;;;;29.52;16.55;;;;;;;;;;5062643;28;20203;-78
2021/12/11 12:17:25;;;;;;;30.17;15.70;;;;;;;;;;5050798;28;20195;-79
2021/12/11 12:19:53;;;;;;;28.27;16.17;;;;;;;;;;5050556;28;20195;-80
2021/12/11 12:22:22;;;;;;;30.10;16.55;;;;;;;;;;5048356;28;20686;-80
2021/12/11 12:24:50;;;;;;;30.98;16.30;;;;;;;;;;5051440;28;20218;-78
2021/12/11 12:27:19;;;;;;;27.17;14.35;;;;;;;;;;5056533;28;20199;-78
2021/12/11 12:29:48;;;;;;;23.70;15.48;;;;;;;;;;5050168;28;20202;-79
2021/12/11 12:32:17;;;;;;;27.80;14.38;;;;;;;;;;5053602;28;20199;-79
2021/12/11 12:34:46;;;;;;;32.85;17.38;;;;;;;;;;5047209;28;20222;-78
2021/12/11 12:37:14;;;;;;;31.02;16.52;;;;;;;;;;5050031;28;20223;-78
2021/12/11 12:39:43;;;;;;;33.28;17.17;;;;;;;;;;5048050;28;20198;-78
2021/12/11 12:42:18;;;;;;;25.38;15.45;;;;;;;;;;5054485;28;20198;-79
2021/12/11 12:44:46;;;;;;;21.60;12.13;;;;;;;;;;5048744;28;20698;-78
2021/12/11 12:47:17;;;;;;;31.13;15.40;;;;;;;;;;5046638;28;20200;-78
2021/12/11 12:49:46;;;;;;;26.67;17.63;;;;;;;;;;5053281;28;20209;-78
2021/12/11 12:52:15;;;;;;;28.00;16.30;;;;;;;;;;5050253;28;20203;-79
2021/12/11 12:54:42;;;;;;;31.38;15.57;;;;;;;;;;5051193;28;20195;-78
2021/12/11 12:57:14;;;;;;;27.02;14.68;;;;;;;;;;5042751;28;20534;-78
2021/12/11 12:59:43;;;;;;;25.13;14.43;;;;;;;;;;5049288;28;20218;-77
2021/12/11 13:02:12;;;;;;;24.85;14.95;;;;;;;;;;5054476;28;20199;-78
2021/12/11 13:04:44;;;;;;;27.25;14.60;;;;;;;;;;5050927;28;20269;-78
2021/12/11 13:07:14;;;;;;;29.00;14.65;;;;;;;;;;5046437;28;20229;-79
2021/12/11 13:09:42;;;;;;;25.92;15.50;;;;;;;;;;5041696;28;20202;-79
2021/12/11 13:12:11;;;;;;;26.15;13.60;;;;;;;;;;5051446;28;20202;-78
2021/12/11 13:14:40;;;;;;;27.90;14.50;;;;;;;;;;5063168;28;20590;-79
2021/12/11 13:17:09;;;;;;;28.15;13.77;;;;;;;;;;5059670;28;20202;-78
2021/12/11 13:19:38;;;;;;;27.38;16.15;;;;;;;;;;5055802;28;20206;-78
2021/12/11 13:22:08;;;;;;;24.90;14.55;;;;;;;;;;5050427;28;20209;-77
2021/12/11 13:24:36;;;;;;;25.02;14.07;;;;;;;;;;5054953;28;20685;-78
2021/12/11 13:27:06;;;;;;;25.17;15.25;;;;;;;;;;5061002;28;20194;-78
2021/12/11 13:29:35;;;;;;;28.85;15.20;;;;;;;;;;5062908;28;20217;-79
2021/12/11 13:32:04;;;;;;;24.35;14.40;;;;;;;;;;5048531;28;20195;-78
2021/12/11 13:34:32;;;;;;;22.88;12.80;;;;;;;;;;5057980;28;20199;-78
2021/12/11 13:37:00;;;;;;;26.58;14.80;;;;;;;;;;5055993;28;20206;-77
2021/12/11 13:39:29;;;;;;;25.38;13.70;;;;;;;;;;5054243;28;20203;-79
2021/12/11 13:41:59;;;;;;;23.92;13.20;;;;;;;;;;5045955;28;20206;-78
2021/12/11 13:44:27;;;;;;;20.15;11.90;;;;;;;;;;5044186;28;20218;-78
2021/12/11 13:46:55;;;;;;;22.20;12.88;;;;;;;;;;5050560;28;20198;-78
2021/12/11 13:49:22;;;;;;;23.75;11.27;;;;;;;;;;5055280;28;20199;-77
2021/12/11 13:51:49;;;;;;;22.00;12.77;;;;;;;;;;5049648;28;20194;-78
2021/12/11 13:54:17;;;;;;;22.42;11.48;;;;;;;;;;5064036;28;20202;-77
2021/12/11 13:56:50;;;;;;;17.58;9.85;;;;;;;;;;5036437;28;20651;-78
2021/12/11 13:59:17;;;;;;;20.77;12.50;;;;;;;;;;5049382;28;20237;-77
2021/12/11 14:01:45;;;;;;;24.55;13.18;;;;;;;;;;5046608;28;20206;-78
2021/12/11 14:04:13;;;;;;;21.05;11.40;;;;;;;;;;5051604;28;20206;-78
2021/12/11 14:06:48;;;;;;;19.38;11.63;;;;;;;;;;5046547;28;20200;-78
2021/12/11 14:09:15;;;;;;;20.48;11.98;;;;;;;;;;5040436;28;20207;-78
2021/12/11 14:11:43;;;;;;;17.25;11.63;;;;;;;;;;5051427;28;20214;-78
2021/12/11 14:14:12;;;;;;;18.50;11.00;;;;;;;;;;5054228;28;20206;-78
2021/12/11 14:16:39;;;;;;;20.10;11.38;;;;;;;;;;5058058;28;20206;-78
2021/12/11 14:19:07;;;;;;;18.17;12.43;;;;;;;;;;5059174;28;20205;-78
2021/12/11 14:21:34;;;;;;;20.20;11.43;;;;;;;;;;5053923;28;20198;-78
2021/12/11 14:24:03;;;;;;;18.23;11.77;;;;;;;;;;5037296;28;20203;-78
2021/12/11 14:26:30;;;;;;;19.52;11.88;;;;;;;;;;5051356;28;20305;-78
2021/12/11 14:28:58;;;;;;;21.27;11.45;;;;;;;;;;5053927;28;20199;-78
2021/12/11 14:31:28;;;;;;;19.00;11.10;;;;;;;;;;5052739;28;20203;-78
2021/12/11 14:33:57;;;;;;;19.83;12.70;;;;;;;;;;5042480;28;20195;-78
2021/12/11 14:36:27;;;;;;;19.92;11.50;;;;;;;;;;5053890;28;20191;-78
2021/12/11 14:39:03;;;;;;;15.13;10.50;;;;;;;;;;5049646;28;20221;-78
2021/12/11 14:41:31;;;;;;;18.40;11.18;;;;;;;;;;5054944;28;20202;-78
2021/12/11 14:43:59;;;;;;;16.85;11.45;;;;;;;;;;5051107;28;20652;-78
2021/12/11 14:46:30;;;;;;;17.80;12.02;;;;;;;;;;5051817;28;20698;-78
2021/12/11 14:48:57;;;;;;;19.45;12.27;;;;;;;;;;5052722;28;20276;-79